Time;durP1;ratioP1;P1;durP2;ratioP2;P2;SDS_P1;SDS_P2;PMS_P1;PMS_P2;Temp;Humidity;BMP_temperature;BMP_pressure;BME280_temperature;BME280_humidity;BME280_pressure;Samples;Min_cycle;Max_cycle;Signal;HPM_P1;HPM_P2
2022/01/10 00:01:28;;;;;;;;;;;;;;;;;;5150324;27;2050;-65
2022/01/10 00:03:53;;;;;;;;;;;;;;;;;;5135898;27;1206;-66
2022/01/10 00:06:19;;;;;;;;;;;;;;;;;;5132557;27;873;-66
2022/01/10 00:08:44;;;;;;;;;;;;;;;;;;5131272;27;1193;-66
2022/01/10 00:11:09;;;;;;;;;;;;;;;;;;5132796;27;1190;-66
2022/01/10 00:13:34;;;;;;;;;;;;;;;;;;5151605;27;1226;-65
2022/01/10 00:16:00;;;;;;;;;;;;;;;;;;5152406;27;851;-66
2022/01/10 00:18:25;;;;;;;;;;;;;;;;;;5152090;27;879;-65
2022/01/10 00:20:50;;;;;;;;;;;;;;;;;;5133903;27;1979;-65
2022/01/10 00:23:15;;;;;;;;;;;;;;;;;;5152348;27;1069;-65
2022/01/10 00:25:41;;;;;;;;;;;;;;;;;;5152990;27;1045;-65
2022/01/10 00:28:06;;;;;;;;;;;;;;;;;;5152715;27;820;-65
2022/01/10 00:30:31;;;;;;;;;;;;;;;;;;5152794;27;777;-65
2022/01/10 00:32:57;;;;;;;;;;;;;;;;;;5153819;27;863;-65
2022/01/10 00:35:22;;;;;;;;;;;;;;;;;;5152711;27;970;-65
2022/01/10 00:37:48;;;;;;;;;;;;;;;;;;5152852;27;1045;-65
2022/01/10 00:40:14;;;;;;;;;;;;;;;;;;5134306;27;1901;-65
2022/01/10 00:42:39;;;;;;;;;;;;;;;;;;5152574;27;1800;-65
2022/01/10 00:45:13;;;;;;;;;;;;;;;;;;5134214;27;959;-65
2022/01/10 00:47:39;;;;;;;;;;;;;;;;;;5134697;27;2492;-65
2022/01/10 00:50:04;;;;;;;;;;;;;;;;;;5153661;27;978;-65
2022/01/10 00:52:29;;;;;;;;;;;;;;;;;;5153720;27;915;-65
2022/01/10 00:54:55;;;;;;;;;;;;;;;;;;5153835;27;797;-65
2022/01/10 00:57:20;;;;;;;;;;;;;;;;;;5117449;27;1222;-65
2022/01/10 00:59:46;;;;;;;;;;;;;;;;;;5153446;27;1984;-65
2022/01/10 01:02:11;;;;;;;;;;;;;;;;;;5153256;27;840;-65
2022/01/10 01:04:36;;;;;;;;;;;;;;;;;;5151929;27;836;-65
2022/01/10 01:07:01;;;;;;;;;;;;;;;;;;5151746;27;887;-65
2022/01/10 01:09:29;;;;;;;;;;;;;;;;;;5151543;27;1057;-65
2022/01/10 01:14:37;;;;;;;;;;;;;;;;;;5155381;27;690;-65
2022/01/10 01:17:15;;;;;;;;;;;;;;;;;;5139056;27;884;-66
2022/01/10 01:25:10;;;;;;;;;;;;;;;;;;5156346;27;674;-65
2022/01/10 01:27:35;;;;;;;;;;;;;;;;;;5155747;27;899;-64
2022/01/10 01:30:00;;;;;;;;;;;;;;;;;;5155667;27;939;-65
2022/01/10 01:32:26;;;;;;;;;;;;;;;;;;5155577;27;931;-65
2022/01/10 01:34:55;;;;;;;;;;;;;;;;;;5156033;27;895;-65
2022/01/10 01:37:20;;;;;;;;;;;;;;;;;;5155402;27;917;-66
2022/01/10 01:39:46;;;;;;;;;;;;;;;;;;5155396;27;1905;-65
2022/01/10 01:42:34;;;;;;;;;;;;;;;;;;5155231;27;891;-65
2022/01/10 01:45:01;;;;;;;;;;;;;;;;;;5154731;27;1094;-65
2022/01/10 01:47:26;;;;;;;;;;;;;;;;;;5155459;27;860;-65
2022/01/10 01:49:52;;;;;;;;;;;;;;;;;;5155773;27;1029;-65
2022/01/10 01:52:17;;;;;;;;;;;;;;;;;;5136065;27;1583;-66
2022/01/10 01:54:42;;;;;;;;;;;;;;;;;;5135814;27;1187;-65
2022/01/10 01:57:07;;;;;;;;;;;;;;;;;;5118696;27;1269;-66
2022/01/10 01:59:35;;;;;;;;;;;;;;;;;;5154800;27;831;-66
2022/01/10 02:02:00;;;;;;;;;;;;;;;;;;5154367;27;1909;-65
2022/01/10 02:04:25;;;;;;;;;;;;;;;;;;5153974;27;831;-65
2022/01/10 02:06:50;;;;;;;;;;;;;;;;;;5155101;27;891;-65
2022/01/10 02:09:16;;;;;;;;;;;;;;;;;;5154377;27;899;-65
2022/01/10 02:11:41;;;;;;;;;;;;;;;;;;5136005;27;1039;-65
2022/01/10 02:14:08;;;;;;;;;;;;;;;;;;5154626;27;835;-65
2022/01/10 02:16:42;;;;;;;;;;;;;;;;;;5154081;27;808;-65
2022/01/10 02:19:07;;;;;;;;;;;;;;;;;;5135421;27;832;-66
2022/01/10 02:21:32;;;;;;;;;;;;;;;;;;5153807;27;1893;-66
2022/01/10 02:23:58;;;;;;;;;;;;;;;;;;5153961;27;1443;-65
2022/01/10 02:26:23;;;;;;;;;;;;;;;;;;5135081;27;1541;-65
2022/01/10 02:28:49;;;;;;;;;;;;;;;;;;5135507;27;840;-65
2022/01/10 02:31:14;;;;;;;;;;;;;;;;;;5153981;27;1037;-66
2022/01/10 02:33:39;;;;;;;;;;;;;;;;;;5154123;27;826;-65
2022/01/10 02:38:50;;;;;;;;;;;;;;;;;;5154869;27;1060;-66
2022/01/10 02:41:27;;;;;;;;;;;;;;;;;;5153689;27;1952;-66
2022/01/10 02:43:52;;;;;;;;;;;;;;;;;;5153976;27;1047;-66
2022/01/10 02:46:18;;;;;;;;;;;;;;;;;;5134827;27;908;-65
2022/01/10 02:48:43;;;;;;;;;;;;;;;;;;5153874;27;827;-66
2022/01/10 02:51:08;;;;;;;;;;;;;;;;;;5134614;27;1308;-65
2022/01/10 02:53:34;;;;;;;;;;;;;;;;;;5153374;27;903;-66
2022/01/10 02:55:59;;;;;;;;;;;;;;;;;;5154193;27;938;-65
2022/01/10 02:58:24;;;;;;;;;;;;;;;;;;5153652;27;898;-65
2022/01/10 03:00:50;;;;;;;;;;;;;;;;;;5153807;27;1902;-65
2022/01/10 03:03:15;;;;;;;;;;;;;;;;;;5153435;27;908;-65
2022/01/10 03:05:40;;;;;;;;;;;;;;;;;;5153776;27;1042;-65
2022/01/10 03:08:06;;;;;;;;;;;;;;;;;;5135343;27;1169;-64
2022/01/10 03:10:31;;;;;;;;;;;;;;;;;;5153549;27;832;-64
2022/01/10 03:13:00;;;;;;;;;;;;;;;;;;5153823;27;899;-65
2022/01/10 03:15:25;;;;;;;;;;;;;;;;;;5153409;27;876;-65
2022/01/10 03:17:50;;;;;;;;;;;;;;;;;;5154006;27;833;-65
2022/01/10 03:20:16;;;;;;;;;;;;;;;;;;5117583;27;1897;-66
2022/01/10 03:22:41;;;;;;;;;;;;;;;;;;5153056;27;904;-66
2022/01/10 03:25:06;;;;;;;;;;;;;;;;;;5153530;27;1038;-66
2022/01/10 03:27:32;;;;;;;;;;;;;;;;;;5134237;27;1197;-65
2022/01/10 03:29:57;;;;;;;;;;;;;;;;;;5134740;27;828;-65
2022/01/10 03:32:23;;;;;;;;;;;;;;;;;;5152882;27;801;-65
2022/01/10 03:34:49;;;;;;;;;;;;;;;;;;5152205;27;1099;-65
2022/01/10 03:37:14;;;;;;;;;;;;;;;;;;5153007;27;1037;-65
2022/01/10 03:39:39;;;;;;;;;;;;;;;;;;5152513;27;934;-66
2022/01/10 03:42:05;;;;;;;;;;;;;;;;;;5152570;27;1913;-65
2022/01/10 03:44:30;;;;;;;;;;;;;;;;;;5152361;27;1237;-66
2022/01/10 03:46:56;;;;;;;;;;;;;;;;;;5153263;27;847;-66
2022/01/10 03:49:22;;;;;;;;;;;;;;;;;;5152881;27;871;-65
2022/01/10 03:51:48;;;;;;;;;;;;;;;;;;5152675;27;835;-66
2022/01/10 03:54:13;;;;;;;;;;;;;;;;;;5152709;27;887;-66
2022/01/10 03:56:39;;;;;;;;;;;;;;;;;;5152316;27;867;-66
2022/01/10 03:59:04;;;;;;;;;;;;;;;;;;5133703;27;954;-66
2022/01/10 04:01:30;;;;;;;;;;;;;;;;;;5152211;27;1918;-66
2022/01/10 04:03:56;;;;;;;;;;;;;;;;;;5152310;27;995;-65
2022/01/10 04:06:21;;;;;;;;;;;;;;;;;;5152812;27;812;-66
2022/01/10 04:08:46;;;;;;;;;;;;;;;;;;5134141;27;1184;-66
2022/01/10 04:11:12;;;;;;;;;;;;;;;;;;5133995;27;959;-66
2022/01/10 04:13:37;;;;;;;;;;;;;;;;;;5151837;27;986;-65
2022/01/10 04:16:03;;;;;;;;;;;;;;;;;;5153032;27;993;-66
2022/01/10 04:18:28;;;;;;;;;;;;;;;;;;5151771;27;929;-66
2022/01/10 04:20:53;;;;;;;;;;;;;;;;;;5133972;27;1925;-65
2022/01/10 04:23:19;;;;;;;;;;;;;;;;;;5152696;27;922;-65
2022/01/10 04:25:44;;;;;;;;;;;;;;;;;;5152220;27;887;-65
2022/01/10 04:28:10;;;;;;;;;;;;;;;;;;5152407;27;892;-65
2022/01/10 04:30:35;;;;;;;;;;;;;;;;;;5151760;27;781;-65
2022/01/10 04:33:02;;;;;;;;;;;;;;;;;;5152603;27;871;-65
2022/01/10 04:35:27;;;;;;;;;;;;;;;;;;5151962;27;864;-65
2022/01/10 04:37:53;;;;;;;;;;;;;;;;;;5152534;27;909;-66
2022/01/10 04:40:18;;;;;;;;;;;;;;;;;;5133625;27;1906;-65
2022/01/10 04:42:44;;;;;;;;;;;;;;;;;;5151994;27;868;-65
2022/01/10 04:45:09;;;;;;;;;;;;;;;;;;5153651;27;1267;-66
2022/01/10 04:47:35;;;;;;;;;;;;;;;;;;5156117;27;896;-66
2022/01/10 04:50:16;;;;;;;;;;;;;;;;;;5156990;27;887;-65
2022/01/10 04:52:44;;;;;;;;;;;;;;;;;;5156100;27;915;-65
2022/01/10 04:55:10;;;;;;;;;;;;;;;;;;5156737;27;871;-66
2022/01/10 04:57:35;;;;;;;;;;;;;;;;;;5137635;27;967;-65
2022/01/10 05:00:01;;;;;;;;;;;;;;;;;;5156742;27;1947;-66
2022/01/10 05:02:26;;;;;;;;;;;;;;;;;;5156038;27;801;-66
2022/01/10 05:04:51;;;;;;;;;;;;;;;;;;5156562;27;873;-65
2022/01/10 05:07:16;;;;;;;;;;;;;;;;;;5156097;27;946;-65
2022/01/10 05:09:42;;;;;;;;;;;;;;;;;;5155622;27;921;-66
2022/01/10 05:12:07;;;;;;;;;;;;;;;;;;5155835;27;1219;-65
2022/01/10 05:14:33;;;;;;;;;;;;;;;;;;5155044;27;950;-65
2022/01/10 05:16:59;;;;;;;;;;;;;;;;;;5155772;27;844;-65
2022/01/10 05:19:24;;;;;;;;;;;;;;;;;;5155343;27;924;-66
2022/01/10 05:21:49;;;;;;;;;;;;;;;;;;5155577;27;1909;-66
2022/01/10 05:24:15;;;;;;;;;;;;;;;;;;5155411;27;828;-65
2022/01/10 05:26:40;;;;;;;;;;;;;;;;;;5155179;27;1030;-65
2022/01/10 05:29:05;;;;;;;;;;;;;;;;;;5155804;27;1149;-66
2022/01/10 05:31:33;;;;;;;;;;;;;;;;;;5154697;27;970;-66
2022/01/10 05:33:59;;;;;;;;;;;;;;;;;;5155359;27;855;-65
2022/01/10 05:36:24;;;;;;;;;;;;;;;;;;5154984;27;903;-66
2022/01/10 05:38:49;;;;;;;;;;;;;;;;;;5119772;27;1057;-66
2022/01/10 05:41:15;;;;;;;;;;;;;;;;;;5155238;27;1897;-66
2022/01/10 05:43:40;;;;;;;;;;;;;;;;;;5154278;27;1370;-66
2022/01/10 05:46:09;;;;;;;;;;;;;;;;;;5155393;27;863;-66
2022/01/10 05:48:35;;;;;;;;;;;;;;;;;;5154585;27;935;-66
2022/01/10 05:51:01;;;;;;;;;;;;;;;;;;5155482;27;795;-65
2022/01/10 05:53:26;;;;;;;;;;;;;;;;;;5154539;27;765;-65
2022/01/10 05:55:52;;;;;;;;;;;;;;;;;;5136544;27;1099;-66
2022/01/10 05:58:17;;;;;;;;;;;;;;;;;;5154130;27;931;-65
2022/01/10 06:00:43;;;;;;;;;;;;;;;;;;5154855;27;1906;-66
2022/01/10 06:03:08;;;;;;;;;;;;;;;;;;5154892;27;832;-66
2022/01/10 06:05:34;;;;;;;;;;;;;;;;;;5154568;27;856;-66
2022/01/10 06:07:59;;;;;;;;;;;;;;;;;;5154643;27;1038;-66
2022/01/10 06:10:25;;;;;;;;;;;;;;;;;;5154694;27;828;-66
2022/01/10 06:12:51;;;;;;;;;;;;;;;;;;5154236;27;929;-66
2022/01/10 06:15:16;;;;;;;;;;;;;;;;;;5136023;27;947;-66
2022/01/10 06:17:41;;;;;;;;;;;;;;;;;;5154533;27;654;-66
2022/01/10 06:20:07;;;;;;;;;;;;;;;;;;5155234;27;1985;-66
2022/01/10 06:22:33;;;;;;;;;;;;;;;;;;5154253;27;1226;-66
2022/01/10 06:24:59;;;;;;;;;;;;;;;;;;5155027;27;813;-66
2022/01/10 06:27:24;;;;;;;;;;;;;;;;;;5154483;27;757;-66
2022/01/10 06:29:49;;;;;;;;;;;;;;;;;;5136183;27;1562;-66
2022/01/10 06:32:15;;;;;;;;;;;;;;;;;;5154911;27;815;-66
2022/01/10 06:34:40;;;;;;;;;;;;;;;;;;5154200;27;858;-66
2022/01/10 06:37:05;;;;;;;;;;;;;;;;;;5155088;27;1015;-66
2022/01/10 06:39:31;;;;;;;;;;;;;;;;;;5136162;27;809;-66
2022/01/10 06:41:56;;;;;;;;;;;;;;;;;;5136509;27;1905;-65
2022/01/10 06:44:21;;;;;;;;;;;;;;;;;;5154247;27;1047;-65
2022/01/10 06:46:46;;;;;;;;;;;;;;;;;;5154519;27;911;-65
2022/01/10 06:49:12;;;;;;;;;;;;;;;;;;5135931;27;900;-65
2022/01/10 06:51:37;;;;;;;;;;;;;;;;;;5135149;27;896;-67
2022/01/10 06:54:02;;;;;;;;;;;;;;;;;;5154340;27;935;-66
2022/01/10 06:56:27;;;;;;;;;;;;;;;;;;5153837;27;939;-66
2022/01/10 06:58:53;;;;;;;;;;;;;;;;;;5135716;27;1215;-66
2022/01/10 07:01:20;;;;;;;;;;;;;;;;;;5154304;27;1960;-66
2022/01/10 07:03:45;;;;;;;;;;;;;;;;;;5153521;27;824;-66
2022/01/10 07:06:10;;;;;;;;;;;;;;;;;;5153741;27;1026;-66
2022/01/10 07:08:35;;;;;;;;;;;;;;;;;;5153400;27;926;-66
2022/01/10 07:11:01;;;;;;;;;;;;;;;;;;5153739;27;832;-65
2022/01/10 07:13:26;;;;;;;;;;;;;;;;;;5153138;27;931;-66
2022/01/10 07:15:52;;;;;;;;;;;;;;;;;;5153351;27;1165;-65
2022/01/10 07:18:17;;;;;;;;;;;;;;;;;;5153479;27;892;-65
2022/01/10 07:20:43;;;;;;;;;;;;;;;;;;5152950;27;1913;-65
2022/01/10 07:23:08;;;;;;;;;;;;;;;;;;5153397;27;856;-65
2022/01/10 07:25:35;;;;;;;;;;;;;;;;;;5152841;27;856;-64
2022/01/10 07:28:00;;;;;;;;;;;;;;;;;;5134961;27;907;-64
2022/01/10 07:30:25;;;;;;;;;;;;;;;;;;5153235;27;994;-65
2022/01/10 07:32:51;;;;;;;;;;;;;;;;;;5117084;27;1377;-65
2022/01/10 07:35:16;;;;;;;;;;;;;;;;;;5153083;27;835;-65
2022/01/10 07:37:41;;;;;;;;;;;;;;;;;;5152672;27;914;-65
2022/01/10 07:40:07;;;;;;;;;;;;;;;;;;5153350;27;1905;-65
2022/01/10 07:42:32;;;;;;;;;;;;;;;;;;5153096;27;823;-64
2022/01/10 07:44:57;;;;;;;;;;;;;;;;;;5152363;27;1426;-66
2022/01/10 07:47:22;;;;;;;;;;;;;;;;;;5152823;27;954;-65
2022/01/10 07:49:48;;;;;;;;;;;;;;;;;;5153039;27;837;-65
2022/01/10 07:52:13;;;;;;;;;;;;;;;;;;5134191;27;758;-64
2022/01/10 07:54:38;;;;;;;;;;;;;;;;;;5133740;27;972;-64
2022/01/10 07:57:04;;;;;;;;;;;;;;;;;;5152728;27;1014;-64
2022/01/10 07:59:29;;;;;;;;;;;;;;;;;;5152639;27;903;-65
2022/01/10 08:01:54;;;;;;;;;;;;;;;;;;5152492;27;1971;-64
2022/01/10 08:04:19;;;;;;;;;;;;;;;;;;5152663;27;808;-64
2022/01/10 08:06:45;;;;;;;;;;;;;;;;;;5152423;27;983;-65
2022/01/10 08:09:10;;;;;;;;;;;;;;;;;;5152827;27;879;-65
2022/01/10 08:11:35;;;;;;;;;;;;;;;;;;5153338;27;1139;-65
2022/01/10 08:14:02;;;;;;;;;;;;;;;;;;5152663;27;1010;-65
2022/01/10 08:16:27;;;;;;;;;;;;;;;;;;5152589;27;871;-65
2022/01/10 08:18:52;;;;;;;;;;;;;;;;;;5152528;27;896;-64
2022/01/10 08:21:18;;;;;;;;;;;;;;;;;;5136938;27;1926;-64
2022/01/10 08:23:43;;;;;;;;;;;;;;;;;;5156866;27;855;-65
2022/01/10 08:26:08;;;;;;;;;;;;;;;;;;5156747;27;896;-65
2022/01/10 08:28:34;;;;;;;;;;;;;;;;;;5156426;27;950;-65
2022/01/10 08:31:00;;;;;;;;;;;;;;;;;;5157217;27;1057;-65
2022/01/10 08:33:25;;;;;;;;;;;;;;;;;;5157283;27;926;-65
2022/01/10 08:35:51;;;;;;;;;;;;;;;;;;5157310;27;828;-65
2022/01/10 08:38:17;;;;;;;;;;;;;;;;;;5156901;27;930;-65
2022/01/10 08:40:42;;;;;;;;;;;;;;;;;;5156851;27;1898;-65
2022/01/10 08:43:10;;;;;;;;;;;;;;;;;;5157210;27;836;-65
2022/01/10 08:45:35;;;;;;;;;;;;;;;;;;5156217;27;1193;-65
2022/01/10 08:48:01;;;;;;;;;;;;;;;;;;5156787;27;828;-65
2022/01/10 08:50:27;;;;;;;;;;;;;;;;;;5156735;27;766;-64
2022/01/10 08:52:52;;;;;;;;;;;;;;;;;;5156462;27;824;-64
2022/01/10 08:55:18;;;;;;;;;;;;;;;;;;5156399;27;991;-64
2022/01/10 08:57:43;;;;;;;;;;;;;;;;;;5156134;27;757;-65
2022/01/10 09:00:09;;;;;;;;;;;;;;;;;;5156559;27;1989;-65
2022/01/10 09:02:34;;;;;;;;;;;;;;;;;;5156340;27;895;-66
2022/01/10 09:04:59;;;;;;;;;;;;;;;;;;5156215;27;899;-64
2022/01/10 09:07:24;;;;;;;;;;;;;;;;;;5156340;27;895;-65
2022/01/10 09:09:50;;;;;;;;;;;;;;;;;;5156311;27;812;-66
2022/01/10 09:12:15;;;;;;;;;;;;;;;;;;5137282;27;963;-65
2022/01/10 09:14:40;;;;;;;;;;;;;;;;;;5156344;27;824;-66
2022/01/10 09:17:06;;;;;;;;;;;;;;;;;;5155563;27;958;-65
2022/01/10 09:19:31;;;;;;;;;;;;;;;;;;5137642;27;781;-65
2022/01/10 09:21:56;;;;;;;;;;;;;;;;;;5155805;27;1910;-65
2022/01/10 09:24:22;;;;;;;;;;;;;;;;;;5156167;27;882;-64
2022/01/10 09:26:47;;;;;;;;;;;;;;;;;;5156221;27;827;-65
2022/01/10 09:29:12;;;;;;;;;;;;;;;;;;5156194;27;938;-65
2022/01/10 09:31:38;;;;;;;;;;;;;;;;;;5156354;27;1014;-65
2022/01/10 09:34:03;;;;;;;;;;;;;;;;;;5155879;27;844;-64
2022/01/10 09:36:29;;;;;;;;;;;;;;;;;;5155861;27;848;-64
2022/01/10 09:38:55;;;;;;;;;;;;;;;;;;5155415;27;1076;-65
2022/01/10 09:41:21;;;;;;;;;;;;;;;;;;5155811;27;1975;-65
2022/01/10 09:43:48;;;;;;;;;;;;;;;;;;5153544;27;1213;-65
2022/01/10 09:46:14;;;;;;;;;;;;;;;;;;5154915;27;812;-65
2022/01/10 09:48:39;;;;;;;;;;;;;;;;;;5155195;27;847;-65
2022/01/10 09:51:04;;;;;;;;;;;;;;;;;;5155577;27;895;-65
2022/01/10 09:53:30;;;;;;;;;;;;;;;;;;5155762;27;1024;-65
2022/01/10 09:55:55;;;;;;;;;;;;;;;;;;5154752;27;752;-64
2022/01/10 09:58:20;;;;;;;;;;;;;;;;;;5155841;27;907;-65
2022/01/10 10:00:46;;;;;;;;;;;;;;;;;;5155427;27;1915;-65
2022/01/10 10:03:11;;;;;;;;;;;;;;;;;;5155453;27;872;-65
2022/01/10 10:05:36;;;;;;;;;;;;;;;;;;5155184;27;887;-65
2022/01/10 10:08:02;;;;;;;;;;;;;;;;;;5154904;27;828;-65
2022/01/10 10:10:28;;;;;;;;;;;;;;;;;;5136608;27;852;-65
2022/01/10 10:12:53;;;;;;;;;;;;;;;;;;5154492;27;907;-65
2022/01/10 10:15:22;;;;;;;;;;;;;;;;;;5136799;27;824;-64
2022/01/10 10:17:48;;;;;;;;;;;;;;;;;;5154923;27;848;-65
2022/01/10 10:20:15;;;;;;;;;;;;;;;;;;5154391;27;1901;-65
2022/01/10 10:22:41;;;;;;;;;;;;;;;;;;5154273;27;844;-65
2022/01/10 10:25:08;;;;;;;;;;;;;;;;;;5154381;27;769;-65
2022/01/10 10:27:37;;;;;;;;;;;;;;;;;;5154547;27;883;-65
2022/01/10 10:30:06;;;;;;;;;;;;;;;;;;5154450;27;864;-65
2022/01/10 10:32:32;;;;;;;;;;;;;;;;;;5154198;27;1011;-65
2022/01/10 10:34:57;;;;;;;;;;;;;;;;;;5135584;27;956;-65
2022/01/10 10:37:25;;;;;;;;;;;;;;;;;;5154780;27;1026;-65
2022/01/10 10:39:51;;;;;;;;;;;;;;;;;;5154573;27;915;-64
2022/01/10 10:42:16;;;;;;;;;;;;;;;;;;5154275;27;1988;-63
2022/01/10 10:44:43;;;;;;;;;;;;;;;;;;5153314;27;1059;-63
2022/01/10 10:47:08;;;;;;;;;;;;;;;;;;5154629;27;797;-64
2022/01/10 10:49:38;;;;;;;;;;;;;;;;;;5154114;27;895;-65
2022/01/10 10:52:07;;;;;;;;;;;;;;;;;;5154055;27;840;-64
2022/01/10 10:54:33;;;;;;;;;;;;;;;;;;5153816;27;876;-64
2022/01/10 10:56:59;;;;;;;;;;;;;;;;;;5153813;27;647;-64
2022/01/10 10:59:29;;;;;;;;;;;;;;;;;;5153098;27;896;-64
2022/01/10 11:01:55;;;;;;;;;;;;;;;;;;5153736;27;1937;-64
2022/01/10 11:04:21;;;;;;;;;;;;;;;;;;5154281;27;844;-64
2022/01/10 11:06:46;;;;;;;;;;;;;;;;;;5153717;27;1046;-63
2022/01/10 11:09:13;;;;;;;;;;;;;;;;;;5134503;27;1323;-64
2022/01/10 11:11:39;;;;;;;;;;;;;;;;;;5153057;27;932;-64
2022/01/10 11:14:04;;;;;;;;;;;;;;;;;;5153146;27;883;-64
2022/01/10 11:16:31;;;;;;;;;;;;;;;;;;5154504;27;845;-64
2022/01/10 11:18:57;;;;;;;;;;;;;;;;;;5153123;27;847;-64
2022/01/10 11:21:25;;;;;;;;;;;;;;;;;;5153815;27;1905;-64
2022/01/10 11:23:52;;;;;;;;;;;;;;;;;;5134400;27;1717;-64
2022/01/10 11:26:17;;;;;;;;;;;;;;;;;;5153119;27;928;-64
2022/01/10 11:28:54;;;;;;;;;;;;;;;;;;5153239;27;887;-65
2022/01/10 11:31:24;;;;;;;;;;;;;;;;;;5153012;27;859;-64
2022/01/10 11:33:50;;;;;;;;;;;;;;;;;;5153650;27;831;-65
2022/01/10 11:36:15;;;;;;;;;;;;;;;;;;5134367;27;943;-64
2022/01/10 11:39:10;;;;;;;;;;;;;;;;;;5152913;27;905;-64
2022/01/10 11:41:35;;;;;;;;;;;;;;;;;;5131212;27;1961;-64
2022/01/10 11:46:40;;;;;;;;;;;;;;;;;;5153111;27;766;-64
2022/01/10 11:49:08;;;;;;;;;;;;;;;;;;5153504;27;824;-65
2022/01/10 11:51:38;;;;;;;;;;;;;;;;;;5153484;27;883;-64
2022/01/10 11:54:09;;;;;;;;;;;;;;;;;;5152698;27;966;-65
2022/01/10 11:56:36;;;;;;;;;;;;;;;;;;5153137;27;804;-64
2022/01/10 11:59:12;;;;;;;;;;;;;;;;;;5153500;27;777;-66
2022/01/10 12:01:39;;;;;;;;;;;;;;;;;;5153188;27;1990;-65
2022/01/10 12:04:04;;;;;;;;;;;;;;;;;;5152871;27;816;-66
2022/01/10 12:06:30;;;;;;;;;;;;;;;;;;5134614;27;837;-65
2022/01/10 12:08:56;;;;;;;;;;;;;;;;;;5152780;27;831;-65
2022/01/10 12:11:23;;;;;;;;;;;;;;;;;;5153002;27;875;-65
2022/01/10 12:13:49;;;;;;;;;;;;;;;;;;5153101;27;816;-66
2022/01/10 12:16:14;;;;;;;;;;;;;;;;;;5152948;27;899;-66
2022/01/10 12:18:40;;;;;;;;;;;;;;;;;;5152865;27;880;-66
2022/01/10 12:21:05;;;;;;;;;;;;;;;;;;5152674;27;1894;-66
2022/01/10 12:23:30;;;;;;;;;;;;;;;;;;5153366;27;875;-66
2022/01/10 12:25:56;;;;;;;;;;;;;;;;;;5134556;27;1006;-66
2022/01/10 12:28:21;;;;;;;;;;;;;;;;;;5152907;27;848;-66
2022/01/10 12:30:47;;;;;;;;;;;;;;;;;;5153145;27;848;-65
2022/01/10 12:33:12;;;;;;;;;;;;;;;;;;5153053;27;974;-66
2022/01/10 12:35:37;;;;;;;;;;;;;;;;;;5153038;27;821;-61
2022/01/10 12:38:03;;;;;;;;;;;;;;;;;;5152790;27;977;-62
2022/01/10 12:40:31;;;;;;;;;;;;;;;;;;5152913;27;1956;-62
2022/01/10 12:42:57;;;;;;;;;;;;;;;;;;5152562;27;765;-62
2022/01/10 12:45:23;;;;;;;;;;;;;;;;;;5152680;27;1291;-62
2022/01/10 12:47:48;;;;;;;;;;;;;;;;;;5152998;27;769;-60
2022/01/10 12:50:14;;;;;;;;;;;;;;;;;;5152443;27;757;-61
2022/01/10 12:52:40;;;;;;;;;;;;;;;;;;5152384;27;888;-61
2022/01/10 12:55:06;;;;;;;;;;;;;;;;;;5152480;27;851;-60
2022/01/10 12:57:31;;;;;;;;;;;;;;;;;;5152458;27;1264;-61
2022/01/10 12:59:58;;;;;;;;;;;;;;;;;;5133589;27;864;-61
2022/01/10 13:02:24;;;;;;;;;;;;;;;;;;5132650;27;1958;-61
2022/01/10 13:04:49;;;;;;;;;;;;;;;;;;5152049;27;940;-61
2022/01/10 13:07:16;;;;;;;;;;;;;;;;;;5154345;27;752;-61
2022/01/10 13:09:43;;;;;;;;;;;;;;;;;;5156149;27;848;-61
2022/01/10 13:12:26;;;;;;;;;;;;;;;;;;5137509;27;1177;-64
2022/01/10 13:14:52;;;;;;;;;;;;;;;;;;5156550;27;839;-62
2022/01/10 13:17:21;;;;;;;;;;;;;;;;;;5155718;27;911;-62
2022/01/10 13:19:46;;;;;;;;;;;;;;;;;;5155488;27;902;-62
2022/01/10 13:22:14;;;;;;;;;;;;;;;;;;5155415;27;1921;-62
2022/01/10 13:24:51;;;;;;;;;;;;;;;;;;5156038;27;773;-62
2022/01/10 13:27:21;;;;;;;;;;;;;;;;;;5155850;27;776;-62
2022/01/10 13:29:56;;;;;;;;;;;;;;;;;;5155883;27;836;-62
2022/01/10 13:32:29;;;;;;;;;;;;;;;;;;5137561;27;1121;-62
2022/01/10 13:35:00;;;;;;;;;;;;;;;;;;5155025;27;903;-62
2022/01/10 13:37:34;;;;;;;;;;;;;;;;;;5136932;27;1324;-64
2022/01/10 13:40:01;;;;;;;;;;;;;;;;;;5156083;27;894;-64
2022/01/10 13:42:26;;;;;;;;;;;;;;;;;;5155864;27;1878;-64
2022/01/10 13:44:54;;;;;;;;;;;;;;;;;;5137189;27;1113;-64
2022/01/10 13:47:21;;;;;;;;;;;;;;;;;;5155557;27;907;-64
2022/01/10 13:49:46;;;;;;;;;;;;;;;;;;5155531;27;876;-64
2022/01/10 13:52:14;;;;;;;;;;;;;;;;;;5155748;27;816;-64
2022/01/10 13:54:40;;;;;;;;;;;;;;;;;;5156027;27;807;-64
2022/01/10 13:57:17;;;;;;;;;;;;;;;;;;5155837;27;935;-64
2022/01/10 13:59:42;;;;;;;;;;;;;;;;;;5155803;27;1186;-64
2022/01/10 14:02:09;;;;;;;;;;;;;;;;;;5156169;27;1913;-64
2022/01/10 14:04:35;;;;;;;;;;;;;;;;;;5137022;27;883;-64
2022/01/10 14:07:05;;;;;;;;;;;;;;;;;;5155047;27;856;-64
2022/01/10 14:09:33;;;;;;;;;;;;;;;;;;5155030;27;919;-64
2022/01/10 14:11:58;;;;;;;;;;;;;;;;;;5155522;27;924;-64
2022/01/10 14:14:26;;;;;;;;;;;;;;;;;;5155214;27;820;-64
2022/01/10 14:16:55;;;;;;;;;;;;;;;;;;5155422;27;886;-64
2022/01/10 14:19:21;;;;;;;;;;;;;;;;;;5154665;27;992;-63
2022/01/10 14:21:47;;;;;;;;;;;;;;;;;;5136673;27;1947;-64
2022/01/10 14:24:12;;;;;;;;;;;;;;;;;;5155484;27;895;-63
2022/01/10 14:26:37;;;;;;;;;;;;;;;;;;5155166;27;946;-63
2022/01/10 14:29:03;;;;;;;;;;;;;;;;;;5136644;27;824;-65
2022/01/10 14:31:28;;;;;;;;;;;;;;;;;;5154410;27;950;-65
2022/01/10 14:33:54;;;;;;;;;;;;;;;;;;5155141;27;879;-64
2022/01/10 14:36:19;;;;;;;;;;;;;;;;;;5136582;27;895;-64
2022/01/10 14:38:45;;;;;;;;;;;;;;;;;;5136183;27;1011;-63
2022/01/10 14:41:11;;;;;;;;;;;;;;;;;;5155060;27;1898;-64
2022/01/10 14:43:36;;;;;;;;;;;;;;;;;;5136436;27;944;-63
2022/01/10 14:46:02;;;;;;;;;;;;;;;;;;5154682;27;1075;-63
2022/01/10 14:48:28;;;;;;;;;;;;;;;;;;5155222;27;867;-63
2022/01/10 14:50:54;;;;;;;;;;;;;;;;;;5154539;27;876;-63
2022/01/10 14:53:21;;;;;;;;;;;;;;;;;;5154728;27;867;-63
2022/01/10 14:55:48;;;;;;;;;;;;;;;;;;5155000;27;851;-63
2022/01/10 14:58:14;;;;;;;;;;;;;;;;;;5136743;27;1180;-64
2022/01/10 15:00:46;;;;;;;;;;;;;;;;;;5135940;27;1917;-64
2022/01/10 15:03:12;;;;;;;;;;;;;;;;;;5154868;27;867;-64
2022/01/10 15:05:37;;;;;;;;;;;;;;;;;;5154911;27;903;-64
2022/01/10 15:08:03;;;;;;;;;;;;;;;;;;5155535;27;844;-64
2022/01/10 15:10:28;;;;;;;;;;;;;;;;;;5154349;27;1231;-63
2022/01/10 15:12:53;;;;;;;;;;;;;;;;;;5154715;27;1141;-64
2022/01/10 15:15:19;;;;;;;;;;;;;;;;;;5154499;27;820;-63
2022/01/10 15:17:44;;;;;;;;;;;;;;;;;;5153234;27;1183;-63
2022/01/10 15:20:10;;;;;;;;;;;;;;;;;;5153772;27;1042;-63
2022/01/10 15:22:36;;;;;;;;;;;;;;;;;;5153417;27;1886;-63
2022/01/10 15:25:03;;;;;;;;;;;;;;;;;;5153530;27;891;-63
2022/01/10 15:27:28;;;;;;;;;;;;;;;;;;5153063;27;883;-63
2022/01/10 15:29:53;;;;;;;;;;;;;;;;;;5134431;27;1643;-63
2022/01/10 15:32:19;;;;;;;;;;;;;;;;;;5153357;27;916;-63
2022/01/10 15:34:44;;;;;;;;;;;;;;;;;;5153062;27;840;-63
2022/01/10 15:37:09;;;;;;;;;;;;;;;;;;5134873;27;2232;-63
2022/01/10 15:39:35;;;;;;;;;;;;;;;;;;5153286;27;1034;-63
2022/01/10 15:42:01;;;;;;;;;;;;;;;;;;5152925;27;1910;-63
2022/01/10 15:44:27;;;;;;;;;;;;;;;;;;5153086;27;1035;-63
2022/01/10 15:46:52;;;;;;;;;;;;;;;;;;5153450;27;903;-63
2022/01/10 15:49:18;;;;;;;;;;;;;;;;;;5134725;27;1529;-63
2022/01/10 15:51:44;;;;;;;;;;;;;;;;;;5152836;27;835;-63
2022/01/10 15:54:09;;;;;;;;;;;;;;;;;;5153132;27;838;-64
2022/01/10 15:56:34;;;;;;;;;;;;;;;;;;5152817;27;871;-63
2022/01/10 15:59:00;;;;;;;;;;;;;;;;;;5134173;27;1259;-63
2022/01/10 16:01:25;;;;;;;;;;;;;;;;;;5152932;27;1913;-62
2022/01/10 16:03:51;;;;;;;;;;;;;;;;;;5152998;27;868;-63
2022/01/10 16:06:16;;;;;;;;;;;;;;;;;;5153185;27;993;-63
2022/01/10 16:08:42;;;;;;;;;;;;;;;;;;5151456;27;929;-63
2022/01/10 16:11:08;;;;;;;;;;;;;;;;;;5153503;27;1118;-63
2022/01/10 16:13:33;;;;;;;;;;;;;;;;;;5153198;27;822;-63
2022/01/10 16:15:59;;;;;;;;;;;;;;;;;;5153396;27;871;-63
2022/01/10 16:18:25;;;;;;;;;;;;;;;;;;5153917;27;808;-63
2022/01/10 16:20:51;;;;;;;;;;;;;;;;;;5153297;27;1902;-63
2022/01/10 16:23:16;;;;;;;;;;;;;;;;;;5153985;27;864;-63
2022/01/10 16:25:41;;;;;;;;;;;;;;;;;;5134645;27;833;-63
2022/01/10 16:28:06;;;;;;;;;;;;;;;;;;5153849;27;848;-64
2022/01/10 16:30:32;;;;;;;;;;;;;;;;;;5153383;27;912;-63
2022/01/10 16:32:57;;;;;;;;;;;;;;;;;;5153413;27;878;-63
2022/01/10 16:35:23;;;;;;;;;;;;;;;;;;5135359;27;1560;-63
2022/01/10 16:37:49;;;;;;;;;;;;;;;;;;5153489;27;936;-63
2022/01/10 16:40:15;;;;;;;;;;;;;;;;;;5153437;27;1013;-63
2022/01/10 16:42:40;;;;;;;;;;;;;;;;;;5156016;27;1964;-62
2022/01/10 16:45:06;;;;;;;;;;;;;;;;;;5156586;27;1094;-62
2022/01/10 16:47:31;;;;;;;;;;;;;;;;;;5156740;27;987;-62
2022/01/10 16:49:58;;;;;;;;;;;;;;;;;;5137907;27;807;-62
2022/01/10 16:52:23;;;;;;;;;;;;;;;;;;5138624;27;1528;-62
2022/01/10 16:54:50;;;;;;;;;;;;;;;;;;5156808;27;804;-62
2022/01/10 16:57:15;;;;;;;;;;;;;;;;;;5157113;27;1155;-63
2022/01/10 16:59:41;;;;;;;;;;;;;;;;;;5156863;27;875;-62
2022/01/10 17:02:06;;;;;;;;;;;;;;;;;;5156502;27;1913;-62
2022/01/10 17:04:31;;;;;;;;;;;;;;;;;;5156919;27;809;-63
2022/01/10 17:06:57;;;;;;;;;;;;;;;;;;5156529;27;1082;-62
2022/01/10 17:09:22;;;;;;;;;;;;;;;;;;5157085;27;872;-63
2022/01/10 17:11:47;;;;;;;;;;;;;;;;;;5156588;27;1041;-62
2022/01/10 17:14:13;;;;;;;;;;;;;;;;;;5156830;27;1057;-62
2022/01/10 17:16:38;;;;;;;;;;;;;;;;;;5137956;27;1261;-62
2022/01/10 17:19:04;;;;;;;;;;;;;;;;;;5156469;27;963;-62
2022/01/10 17:21:29;;;;;;;;;;;;;;;;;;5156244;27;1901;-62